Time;durP1;ratioP1;P1;durP2;ratioP2;P2;SDS_P1;SDS_P2;PMS_P1;PMS_P2;Temp;Humidity;BMP_temperature;BMP_pressure;BME280_temperature;BME280_humidity;BME280_pressure;Samples;Min_cycle;Max_cycle;Signal;HPM_P1;HPM_P2
2023/05/08 00:00:20;;;;;;;8.70;6.67;;;9.30;99.90;;;;;;6302848;22;20433;-79
2023/05/08 00:02:49;;;;;;;7.37;6.60;;;9.20;99.90;;;;;;6301595;22;20400;-79
2023/05/08 00:05:15;;;;;;;7.83;5.03;;;9.20;99.90;;;;;;6303672;22;20389;-78
2023/05/08 00:07:42;;;;;;;5.80;5.40;;;9.10;99.90;;;;;;6301841;22;20393;-78
2023/05/08 00:10:10;;;;;;;6.27;5.67;;;9.20;99.90;;;;;;6288641;22;20929;-80
2023/05/08 00:12:37;;;;;;;6.27;5.70;;;9.10;99.90;;;;;;6284326;22;20461;-79
2023/05/08 00:15:05;;;;;;;7.00;5.20;;;9.00;99.90;;;;;;6282153;22;20816;-79
2023/05/08 00:17:32;;;;;;;6.00;5.50;;;9.00;99.90;;;;;;6281474;22;20405;-79
2023/05/08 00:20:01;;;;;;;7.17;6.30;;;8.90;1.00;;;;;;6280911;22;20443;-78
2023/05/08 00:22:28;;;;;;;6.57;5.93;;;8.80;1.00;;;;;;6280522;22;20437;-79
2023/05/08 00:24:55;;;;;;;5.70;5.27;;;8.80;1.00;;;;;;6281418;22;20494;-79
2023/05/08 00:27:22;;;;;;;7.20;6.50;;;8.80;1.00;;;;;;6280317;22;20405;-80
2023/05/08 00:29:49;;;;;;;6.30;5.70;;;8.70;1.00;;;;;;6279096;22;20452;-78
2023/05/08 00:32:16;;;;;;;7.20;6.57;;;8.70;1.00;;;;;;6280269;22;20397;-79
2023/05/08 00:34:43;;;;;;;6.50;6.00;;;8.70;1.00;;;;;;6280459;22;20428;-79
2023/05/08 00:37:11;;;;;;;6.77;6.27;;;8.70;1.00;;;;;;6281648;22;20408;-79
2023/05/08 00:39:38;;;;;;;6.50;5.90;;;8.60;1.00;;;;;;6282530;22;20477;-79
2023/05/08 00:42:05;;;;;;;6.93;6.17;;;8.50;1.00;;;;;;6282903;22;20463;-80
2023/05/08 00:44:32;;;;;;;6.63;6.03;;;8.50;1.00;;;;;;6281754;22;20492;-79
2023/05/08 00:46:58;;;;;;;7.00;6.40;;;8.50;1.00;;;;;;6283821;22;20737;-80
2023/05/08 00:49:28;;;;;;;6.77;6.17;;;8.50;1.00;;;;;;6294929;22;20492;-87
2023/05/08 00:51:57;;;;;;;6.33;5.83;;;8.50;1.00;;;;;;6307044;22;20371;-88
2023/05/08 00:54:27;;;;;;;7.13;6.50;;;8.50;1.00;;;;;;6301375;22;20393;-87
2023/05/08 00:56:55;;;;;;;8.03;7.13;;;8.50;1.00;;;;;;6292754;22;20409;-87
2023/05/08 00:59:22;;;;;;;7.50;6.70;;;8.50;1.00;;;;;;6291339;22;20438;-88
2023/05/08 01:01:50;;;;;;;7.07;6.47;;;8.60;1.00;;;;;;6290543;22;20479;-86
2023/05/08 01:04:21;;;;;;;7.83;7.13;;;8.60;1.00;;;;;;6290277;22;20432;-87
2023/05/08 01:06:48;;;;;;;6.77;6.17;;;8.60;1.00;;;;;;6290568;22;20400;-87
2023/05/08 01:09:15;;;;;;;7.30;5.80;;;9.10;1.00;;;;;;6289356;22;20490;-88
2023/05/08 01:11:49;;;;;;;7.40;6.80;;;8.50;99.90;;;;;;6290636;22;20412;-87
2023/05/08 01:14:21;;;;;;;7.80;7.00;;;8.30;1.00;;;;;;6293192;22;20426;-88
2023/05/08 01:16:56;;;;;;;6.40;5.87;;;8.50;1.00;;;;;;6291355;22;20809;-88
2023/05/08 01:20:01;;;;;;;7.50;6.80;;;8.40;1.00;;;;;;6290641;22;20424;-89
2023/05/08 01:22:47;;;;;;;7.70;7.00;;;8.40;99.90;;;;;;6293446;22;20444;-87
2023/05/08 01:25:39;;;;;;;7.40;6.70;;;8.40;99.90;;;;;;6302250;22;20348;-86
2023/05/08 01:28:31;;;;;;;8.10;7.30;;;8.30;1.00;;;;;;6306028;22;20419;-87
2023/05/08 01:31:17;;;;;;;7.13;6.30;;;8.30;1.00;;;;;;6306233;22;20425;-87
2023/05/08 01:33:49;;;;;;;6.97;6.27;;;8.30;1.00;;;;;;6305538;22;20472;-86
2023/05/08 01:36:22;;;;;;;6.87;6.27;;;8.30;99.90;;;;;;6305599;22;20388;-87
2023/05/08 01:38:56;;;;;;;10.10;7.30;;;8.30;1.00;;;;;;6305608;22;20400;-87
2023/05/08 01:41:27;;;;;;;7.20;6.20;;;8.30;1.00;;;;;;6303603;22;20425;-86
2023/05/08 01:44:03;;;;;;;8.40;7.00;;;8.30;1.00;;;;;;6300804;22;20401;-85
2023/05/08 01:46:33;;;;;;;8.60;6.97;;;8.30;1.00;;;;;;6294531;22;20350;-86
2023/05/08 01:49:06;;;;;;;7.63;6.97;;;8.30;1.00;;;;;;6290516;22;20437;-87
2023/05/08 01:51:40;;;;;;;9.57;6.53;;;8.30;1.00;;;;;;6289204;22;20439;-86
2023/05/08 01:54:10;;;;;;;7.33;6.63;;;8.10;1.00;;;;;;6288310;22;20413;-87
2023/05/08 01:56:39;;;;;;;8.00;7.13;;;8.10;1.00;;;;;;6287920;22;20376;-87
2023/05/08 01:59:09;;;;;;;8.50;7.67;;;8.10;1.00;;;;;;6287910;22;20750;-87
2023/05/08 02:01:36;;;;;;;7.93;7.10;;;8.10;1.00;;;;;;6287705;22;20517;-87
2023/05/08 02:04:06;;;;;;;7.67;6.90;;;8.10;1.00;;;;;;6287026;22;20488;-87
2023/05/08 02:06:34;;;;;;;7.33;6.70;;;8.20;1.00;;;;;;6290722;22;20465;-87
2023/05/08 02:09:02;;;;;;;7.60;6.80;;;8.30;1.00;;;;;;6293761;22;20475;-87
2023/05/08 02:11:30;;;;;;;7.87;7.07;;;8.00;99.90;;;;;;6289649;22;20400;-87
2023/05/08 02:13:59;;;;;;;8.30;7.50;;;8.20;1.00;;;;;;6303123;22;20389;-86
2023/05/08 02:16:27;;;;;;;8.97;7.63;;;8.10;1.00;;;;;;6306000;22;20398;-87
2023/05/08 02:18:56;;;;;;;9.33;8.13;;;8.00;1.00;;;;;;6301727;22;20773;-86
2023/05/08 02:21:26;;;;;;;8.23;7.53;;;7.90;1.00;;;;;;6290919;22;20504;-87
2023/05/08 02:23:56;;;;;;;8.60;7.80;;;7.90;1.00;;;;;;6285979;22;20386;-88
2023/05/08 02:26:23;;;;;;;8.20;7.43;;;7.90;1.00;;;;;;6288114;22;20925;-85
2023/05/08 02:28:51;;;;;;;8.20;7.50;;;7.70;1.00;;;;;;6286510;22;20822;-86
2023/05/08 02:31:20;;;;;;;8.37;7.67;;;7.70;1.00;;;;;;6289834;22;20424;-88
2023/05/08 02:33:48;;;;;;;8.67;7.87;;;7.80;73.90;;;;;;6288148;22;20818;-88
2023/05/08 02:36:18;;;;;;;10.50;7.97;;;7.70;1.00;;;;;;6288664;22;20386;-88
2023/05/08 02:38:50;;;;;;;8.23;7.53;;;7.60;99.90;;;;;;6288768;22;20429;-88
2023/05/08 02:41:21;;;;;;;7.15;6.55;;;7.50;99.90;;;;;;6290120;22;20213;-87
2023/05/08 02:43:48;;;;;;;8.80;7.33;;;7.50;99.90;;;;;;6305399;22;20143;-88
2023/05/08 02:46:18;;;;;;;8.30;7.50;;;7.50;28.30;;;;;;6305784;22;20436;-88
2023/05/08 02:48:54;;;;;;;8.73;7.95;;;7.80;99.90;;;;;;6298870;22;20448;-88
2023/05/08 02:51:26;;;;;;;9.17;8.27;;;7.30;99.90;;;;;;6287940;22;20237;-88
2023/05/08 02:54:01;;;;;;;8.40;7.63;;;7.30;99.90;;;;;;6287015;22;20386;-88
2023/05/08 02:56:36;;;;;;;7.50;6.87;;;7.20;99.90;;;;;;6288417;22;20761;-88
2023/05/08 02:59:13;;;;;;;7.88;7.13;;;7.20;1.00;;;;;;6287555;22;20417;-88
2023/05/08 03:01:48;;;;;;;7.88;7.13;;;7.10;99.90;;;;;;6289626;22;20236;-87
2023/05/08 03:04:25;;;;;;;8.55;7.85;;;7.10;99.90;;;;;;6288181;22;20182;-87
2023/05/08 03:06:53;;;;;;;9.38;8.43;;;7.10;1.00;;;;;;6292584;22;20216;-86
2023/05/08 03:09:25;;;;;;;9.80;7.77;;;7.00;1.00;;;;;;6287818;22;20532;-87
2023/05/08 03:12:02;;;;;;;8.73;7.82;;;7.00;1.00;;;;;;6289191;22;20385;-87
2023/05/08 03:14:35;;;;;;;8.27;7.47;;;7.00;1.00;;;;;;6287067;22;20243;-86
2023/05/08 03:17:06;;;;;;;8.48;7.75;;;7.00;1.00;;;;;;6290960;22;20241;-87
2023/05/08 03:19:37;;;;;;;9.80;7.50;;;6.90;1.00;;;;;;6287300;22;20198;-88
2023/05/08 03:22:07;;;;;;;12.33;7.23;;;6.90;1.00;;;;;;6292111;22;20793;-86
2023/05/08 03:24:38;;;;;;;8.73;7.20;;;6.80;1.00;;;;;;6287386;22;20426;-86
2023/05/08 03:27:07;;;;;;;8.52;7.82;;;6.80;1.00;;;;;;6288072;22;20373;-87
2023/05/08 03:29:35;;;;;;;8.77;7.97;;;;;;;;;;6288019;22;20244;-87
2023/05/08 03:32:02;;;;;;;9.00;8.10;;;;;;;;;;6286648;22;20170;-86
2023/05/08 03:34:30;;;;;;;8.40;7.65;;;6.80;1.00;;;;;;6287446;22;20207;-88
2023/05/08 03:36:57;;;;;;;8.77;7.70;;;6.80;1.00;;;;;;6288642;22;20175;-89
2023/05/08 03:39:25;;;;;;;8.35;7.47;;;6.90;1.00;;;;;;6300096;22;20205;-88
2023/05/08 03:41:55;;;;;;;8.98;7.97;;;6.40;99.90;;;;;;6305346;22;20201;-88
2023/05/08 03:44:23;;;;;;;15.60;11.70;;;6.70;21.90;;;;;;6305332;22;20159;-86
2023/05/08 03:46:52;;;;;;;9.82;7.55;;;6.70;1.00;;;;;;6288449;22;20230;-88
2023/05/08 03:49:19;;;;;;;8.25;7.25;;;6.60;22.80;;;;;;6285857;22;20257;-87
2023/05/08 03:51:48;;;;;;;9.27;8.45;;;6.60;45.90;;;;;;6288793;22;20205;-87
2023/05/08 03:54:14;;;;;;;8.65;7.90;;;6.60;99.90;;;;;;6285983;22;20201;-88
2023/05/08 03:56:43;;;;;;;9.98;8.05;;;6.60;99.90;;;;;;6286095;22;20209;-88
2023/05/08 03:59:17;;;;;;;9.88;8.20;;;6.50;1.00;;;;;;6285742;22;20199;-87
2023/05/08 04:01:51;;;;;;;10.80;8.38;;;6.60;99.90;;;;;;6286934;22;20213;-87
2023/05/08 04:04:23;;;;;;;9.25;7.95;;;6.70;99.90;;;;;;6287311;22;20209;-87
2023/05/08 04:06:59;;;;;;;9.45;8.45;;;6.60;99.90;;;;;;6289256;22;20163;-88
2023/05/08 04:09:31;;;;;;;8.60;7.70;;;6.50;1.00;;;;;;6289474;22;20579;-87
2023/05/08 04:12:05;;;;;;;9.27;8.27;;;6.60;99.90;;;;;;6289596;22;20210;-88
2023/05/08 04:14:42;;;;;;;8.85;7.95;;;6.70;99.90;;;;;;6290482;22;20174;-87
2023/05/08 04:17:14;;;;;;;8.73;7.53;;;6.60;1.00;;;;;;6306405;22;20203;-87
2023/05/08 04:19:46;;;;;;;8.75;7.78;;;6.70;99.90;;;;;;6295107;22;20198;-87
2023/05/08 04:22:14;;;;;;;9.90;8.80;;;6.80;99.90;;;;;;6286596;22;20263;-88
2023/05/08 04:24:45;;;;;;;9.73;8.77;;;7.50;99.90;;;;;;6286414;22;20205;-88
2023/05/08 04:27:13;;;;;;;10.30;8.45;;;6.90;91.30;;;;;;6286249;22;20603;-87
2023/05/08 04:29:42;;;;;;;10.10;8.85;;;6.80;1.00;;;;;;6286582;22;20205;-86
2023/05/08 04:32:10;;;;;;;9.68;8.77;;;7.00;99.90;;;;;;6287615;22;20532;-88
2023/05/08 04:34:37;;;;;;;11.47;7.67;;;6.90;1.00;;;;;;6291030;22;20182;-88
2023/05/08 04:37:06;;;;;;;8.95;8.02;;;7.00;1.00;;;;;;6289644;22;20459;-86
2023/05/08 04:39:33;;;;;;;9.02;8.13;;;7.00;1.00;;;;;;6287537;22;20198;-87
2023/05/08 04:42:02;;;;;;;9.52;8.63;;;7.00;99.90;;;;;;6288777;22;20338;-87
2023/05/08 04:44:29;;;;;;;9.10;8.20;;;7.10;99.90;;;;;;6288708;22;20606;-88
2023/05/08 04:46:57;;;;;;;10.77;8.15;;;7.20;99.90;;;;;;6305919;22;20174;-88
2023/05/08 04:49:24;;;;;;;10.45;8.27;;;7.20;99.90;;;;;;6306862;22;20242;-88
2023/05/08 04:51:51;;;;;;;11.15;8.40;;;7.30;40.10;;;;;;6306814;22;20166;-86
2023/05/08 04:54:18;;;;;;;10.25;9.07;;;;;;;;;;6306686;22;20165;-85
2023/05/08 04:56:47;;;;;;;15.18;9.02;;;7.40;44.60;;;;;;6306798;22;20169;-86
2023/05/08 04:59:14;;;;;;;10.68;8.52;;;7.50;1.00;;;;;;6306281;22;20190;-87
2023/05/08 05:01:41;;;;;;;9.30;8.40;;;7.70;1.00;;;;;;6306432;22;20206;-86
2023/05/08 05:04:10;;;;;;;8.77;7.70;;;7.80;1.00;;;;;;6306816;22;20163;-86
2023/05/08 05:06:37;;;;;;;9.03;8.17;;;7.90;1.00;;;;;;6304504;22;20405;-86
2023/05/08 05:09:04;;;;;;;8.98;7.57;;;8.10;99.90;;;;;;6303005;22;20409;-86
2023/05/08 05:11:32;;;;;;;8.43;7.50;;;8.00;73.70;;;;;;6301831;22;20198;-87
2023/05/08 05:13:58;;;;;;;9.33;6.90;;;8.10;99.90;;;;;;6299086;22;20413;-88
2023/05/08 05:16:26;;;;;;;7.27;6.57;;;8.20;75.50;;;;;;6305638;22;20406;-87
2023/05/08 05:18:52;;;;;;;7.27;6.57;;;8.20;1.00;;;;;;6303596;22;20480;-86
2023/05/08 05:21:21;;;;;;;8.13;6.70;;;8.30;13.90;;;;;;6299046;22;20412;-87
2023/05/08 05:23:48;;;;;;;6.87;6.27;;;8.20;99.90;;;;;;6297097;22;20445;-86
2023/05/08 05:26:15;;;;;;;6.80;6.20;;;8.40;1.00;;;;;;6292061;22;20431;-87
2023/05/08 05:28:42;;;;;;;8.13;6.20;;;8.40;11.00;;;;;;6290945;22;20395;-88
2023/05/08 05:31:08;;;;;;;8.27;6.40;;;8.50;21.00;;;;;;6291586;22;20436;-87
2023/05/08 05:33:37;;;;;;;10.20;7.17;;;8.60;1.00;;;;;;6293606;22;20878;-86
2023/05/08 05:36:04;;;;;;;8.80;6.73;;;8.70;1.00;;;;;;6291131;22;20443;-87
2023/05/08 05:38:32;;;;;;;5.67;5.13;;;8.70;1.00;;;;;;6291043;22;20482;-88
2023/05/08 05:41:00;;;;;;;6.80;5.90;;;8.60;1.00;;;;;;6290012;22;20413;-88
2023/05/08 05:43:27;;;;;;;8.80;6.20;;;;;;;;;;6291484;22;20528;-88
2023/05/08 05:45:55;;;;;;;7.30;6.30;;;8.70;1.00;;;;;;6291462;22;20412;-86
2023/05/08 05:48:22;;;;;;;6.60;5.50;;;8.90;90.50;;;;;;6294396;22;20396;-88
2023/05/08 05:50:48;;;;;;;5.87;5.20;;;8.70;1.00;;;;;;6288514;22;20429;-88
2023/05/08 05:53:16;;;;;;;8.67;6.13;;;9.00;99.90;;;;;;6287478;22;20979;-87
2023/05/08 05:55:44;;;;;;;6.53;5.40;;;8.70;1.00;;;;;;6287912;22;20440;-86
2023/05/08 05:58:11;;;;;;;6.30;5.10;;;9.00;1.00;;;;;;6288746;22;20404;-86
2023/05/08 06:00:38;;;;;;;6.00;5.50;;;9.00;1.00;;;;;;6291582;22;20520;-87
2023/05/08 06:03:05;;;;;;;6.03;5.43;;;9.10;1.00;;;;;;6287917;22;20913;-86
2023/05/08 06:05:33;;;;;;;4.97;4.57;;;8.90;1.00;;;;;;6284459;22;20406;-86
2023/05/08 06:08:00;;;;;;;5.70;5.20;;;8.90;1.00;;;;;;6285341;22;20396;-86
2023/05/08 06:10:27;;;;;;;5.50;5.00;;;8.90;1.00;;;;;;6286818;22;20463;-86
2023/05/08 06:12:55;;;;;;;6.20;5.63;;;9.10;6.70;;;;;;6286605;22;20409;-86
2023/05/08 06:15:22;;;;;;;6.80;5.43;;;9.00;1.00;;;;;;6299115;22;20384;-87
2023/05/08 06:17:49;;;;;;;5.83;5.20;;;9.20;1.00;;;;;;6294767;22;20724;-87
2023/05/08 06:20:17;;;;;;;6.23;5.47;;;9.30;1.00;;;;;;6292568;22;20452;-88
2023/05/08 06:22:44;;;;;;;5.47;4.90;;;9.40;1.00;;;;;;6301842;22;20483;-86
2023/05/08 06:25:11;;;;;;;4.90;4.50;;;9.40;1.00;;;;;;6304190;22;20393;-86
2023/05/08 06:27:38;;;;;;;6.63;5.10;;;9.50;1.00;;;;;;6304042;22;20372;-87
2023/05/08 06:30:09;;;;;;;9.20;5.33;;;9.40;1.00;;;;;;6303371;22;20425;-86
2023/05/08 06:32:37;;;;;;;5.73;4.80;;;9.60;1.00;;;;;;6291832;22;20356;-87
2023/05/08 06:35:04;;;;;;;4.70;4.30;;;9.60;1.00;;;;;;6288386;22;20387;-87
2023/05/08 06:37:31;;;;;;;4.97;4.07;;;9.60;1.00;;;;;;6287851;22;20761;-89
2023/05/08 06:39:58;;;;;;;4.90;4.50;;;9.70;99.90;;;;;;6287633;22;20407;-88
2023/05/08 06:42:26;;;;;;;5.90;4.70;;;9.70;99.90;;;;;;6287325;22;20441;-86
2023/05/08 06:44:53;;;;;;;6.73;4.57;;;9.90;1.00;;;;;;6287138;22;20395;-86
2023/05/08 06:47:21;;;;;;;8.00;4.67;;;9.90;1.00;;;;;;6287032;22;20444;-88
2023/05/08 06:49:48;;;;;;;5.80;4.47;;;10.00;99.90;;;;;;6289744;22;20492;-77
2023/05/08 06:52:15;;;;;;;4.50;4.10;;;10.00;99.90;;;;;;6297675;22;20401;-78
2023/05/08 06:54:42;;;;;;;5.77;5.20;;;10.10;99.90;;;;;;6290500;22;20368;-78
2023/05/08 06:57:08;;;;;;;4.60;4.10;;;10.30;99.90;;;;;;6290964;22;20461;-78
2023/05/08 06:59:35;;;;;;;4.27;3.87;;;10.40;99.90;;;;;;6297595;22;20420;-78
2023/05/08 07:02:02;;;;;;;5.47;4.97;;;10.50;99.90;;;;;;6293288;22;20404;-78
2023/05/08 07:04:30;;;;;;;6.40;4.43;;;10.50;99.90;;;;;;6287723;22;20437;-79
2023/05/08 07:06:57;;;;;;;5.00;4.20;;;10.70;99.90;;;;;;6281760;22;20891;-79
2023/05/08 07:09:24;;;;;;;4.47;4.07;;;10.80;99.90;;;;;;6282202;22;20485;-79
2023/05/08 07:11:51;;;;;;;4.50;3.60;;;10.80;99.90;;;;;;6281353;22;20492;-79
2023/05/08 07:14:17;;;;;;;6.13;4.00;;;11.00;99.90;;;;;;6280909;22;20376;-78
2023/05/08 07:16:44;;;;;;;4.17;3.60;;;11.00;99.90;;;;;;6280810;22;20404;-78
2023/05/08 07:19:11;;;;;;;3.60;3.30;;;11.20;99.90;;;;;;6282499;22;20425;-79
2023/05/08 07:21:40;;;;;;;9.50;3.10;;;11.10;1.00;;;;;;6282806;22;20439;-79
2023/05/08 07:24:07;;;;;;;4.10;3.20;;;11.30;99.90;;;;;;6281920;22;20444;-79
2023/05/08 07:26:34;;;;;;;3.90;3.60;;;11.20;99.90;;;;;;6281551;22;20404;-79
2023/05/08 07:29:01;;;;;;;4.13;3.40;;;11.20;99.90;;;;;;6281244;22;20433;-79
2023/05/08 07:31:28;;;;;;;3.70;3.00;;;11.30;99.90;;;;;;6284513;22;20996;-80
2023/05/08 07:33:55;;;;;;;7.03;3.83;;;11.50;99.90;;;;;;6284917;22;20432;-80
2023/05/08 07:36:21;;;;;;;3.40;2.90;;;11.60;99.90;;;;;;6283221;22;20409;-79
2023/05/08 07:38:50;;;;;;;3.50;3.30;;;12.00;1.00;;;;;;6281232;22;20405;-79
2023/05/08 07:41:17;;;;;;;4.87;3.50;;;11.80;99.90;;;;;;6289890;22;20491;-79
2023/05/08 07:43:44;;;;;;;3.80;3.50;;;11.80;99.90;;;;;;6283100;22;20472;-80
2023/05/08 07:46:17;;;;;;;5.80;4.10;;;11.70;99.90;;;;;;6287550;22;20428;-80
2023/05/08 07:48:44;;;;;;;4.70;3.53;;;12.20;1.00;;;;;;6288100;22;20423;-78
2023/05/08 07:51:11;;;;;;;3.83;3.33;;;11.90;99.90;;;;;;6285945;22;20408;-79
2023/05/08 07:53:37;;;;;;;5.50;4.40;;;12.00;99.90;;;;;;6284781;22;20467;-79
2023/05/08 07:56:06;;;;;;;3.60;3.30;;;11.70;1.00;;;;;;6283361;22;20383;-79
2023/05/08 07:58:33;;;;;;;6.33;3.83;;;11.80;1.00;;;;;;6283534;22;20409;-79
2023/05/08 08:01:00;;;;;;;3.60;3.30;;;12.00;99.90;;;;;;6284572;22;20424;-81
2023/05/08 08:03:27;;;;;;;3.67;3.37;;;12.20;1.00;;;;;;6284086;22;21041;-80
2023/05/08 08:05:54;;;;;;;4.20;3.53;;;12.10;99.90;;;;;;6298098;22;20721;-79
2023/05/08 08:08:21;;;;;;;4.03;3.70;;;12.20;99.90;;;;;;6298208;22;20376;-80
2023/05/08 08:10:48;;;;;;;3.90;3.13;;;12.30;99.90;;;;;;6283482;22;20516;-81
2023/05/08 08:13:16;;;;;;;4.43;3.37;;;12.40;99.90;;;;;;6283252;22;20436;-80
2023/05/08 08:15:43;;;;;;;5.30;3.33;;;12.50;99.90;;;;;;6282466;22;20400;-79
2023/05/08 08:18:10;;;;;;;4.50;2.90;;;12.70;99.90;;;;;;6291565;22;20431;-79
2023/05/08 08:20:37;;;;;;;6.90;3.50;;;12.90;99.90;;;;;;6288562;22;20441;-80
2023/05/08 08:23:04;;;;;;;5.60;3.10;;;12.70;99.90;;;;;;6282776;22;20475;-79
2023/05/08 08:25:33;;;;;;;8.70;3.20;;;12.70;99.90;;;;;;6284932;22;20401;-80
2023/05/08 08:28:00;;;;;;;3.60;2.77;;;12.90;99.90;;;;;;6291178;22;20811;-80
2023/05/08 08:30:28;;;;;;;2.63;2.43;;;13.10;1.00;;;;;;6291270;22;20456;-79
2023/05/08 08:32:55;;;;;;;3.30;2.90;;;12.90;99.90;;;;;;6284167;22;20440;-79
2023/05/08 08:35:28;;;;;;;2.50;2.30;;;12.90;99.90;;;;;;6284484;22;20443;-79
2023/05/08 08:37:55;;;;;;;4.90;2.80;;;12.80;99.90;;;;;;6286271;22;20390;-79
2023/05/08 08:40:22;;;;;;;4.17;2.80;;;13.00;99.90;;;;;;6288280;22;20429;-79
2023/05/08 08:42:49;;;;;;;7.43;3.07;;;13.20;99.90;;;;;;6288075;22;20428;-79
2023/05/08 08:45:16;;;;;;;6.00;2.97;;;13.30;99.90;;;;;;6286174;22;20405;-79
2023/05/08 08:47:45;;;;;;;3.80;3.43;;;13.40;99.90;;;;;;6281810;22;20483;-80
2023/05/08 08:50:14;;;;;;;3.57;3.00;;;13.60;99.90;;;;;;6282423;22;20715;-80
2023/05/08 08:52:46;;;;;;;3.07;2.87;;;13.50;99.90;;;;;;6299412;22;20409;-79
2023/05/08 08:55:16;;;;;;;3.90;2.97;;;13.40;99.90;;;;;;6293314;22;20725;-79
2023/05/08 08:57:52;;;;;;;3.83;3.47;;;13.40;99.90;;;;;;6285470;22;20488;-80
2023/05/08 09:00:21;;;;;;;5.50;2.63;;;13.40;99.90;;;;;;6282951;22;20508;-79
2023/05/08 09:02:49;;;;;;;5.97;3.10;;;13.30;99.90;;;;;;6282293;22;20401;-80
2023/05/08 09:05:17;;;;;;;2.87;2.67;;;13.30;1.00;;;;;;6284136;22;20405;-81
2023/05/08 09:07:44;;;;;;;6.23;3.60;;;13.50;99.90;;;;;;6283790;22;20405;-81
2023/05/08 09:10:14;;;;;;;7.53;3.30;;;13.70;99.90;;;;;;6291993;22;20452;-80
2023/05/08 09:12:41;;;;;;;4.37;3.00;;;13.60;99.90;;;;;;6298984;22;20406;-80
2023/05/08 09:15:08;;;;;;;4.53;3.40;;;13.60;1.00;;;;;;6297475;22;20529;-80
2023/05/08 09:17:35;;;;;;;4.43;2.50;;;13.70;99.90;;;;;;6285006;22;20881;-80
2023/05/08 09:20:03;;;;;;;5.00;3.00;;;13.80;99.90;;;;;;6283520;22;20452;-80
2023/05/08 09:22:31;;;;;;;4.10;3.30;;;13.80;99.90;;;;;;6285610;22;20436;-80
2023/05/08 09:25:02;;;;;;;3.10;2.90;;;13.70;99.90;;;;;;6288293;22;20528;-80
2023/05/08 09:27:31;;;;;;;4.00;3.50;;;13.70;99.90;;;;;;6292436;22;20390;-80
2023/05/08 09:30:03;;;;;;;5.13;2.60;;;13.90;99.90;;;;;;6292823;22;20421;-79
2023/05/08 09:32:30;;;;;;;3.10;2.90;;;13.80;99.90;;;;;;6304299;22;20401;-78
2023/05/08 09:34:57;;;;;;;3.87;3.10;;;14.00;99.90;;;;;;6294370;22;20788;-79
2023/05/08 09:37:27;;;;;;;5.37;3.13;;;14.10;99.90;;;;;;6290102;22;20784;-81
2023/05/08 09:39:54;;;;;;;3.30;3.00;;;14.20;99.90;;;;;;6285973;22;20429;-80
2023/05/08 09:42:24;;;;;;;4.47;3.10;;;14.30;99.90;;;;;;6286953;22;20815;-79
2023/05/08 09:44:52;;;;;;;4.60;2.90;;;14.40;99.90;;;;;;6287243;22;20448;-80
2023/05/08 09:47:21;;;;;;;3.30;2.63;;;14.30;99.90;;;;;;6285798;22;20432;-80
2023/05/08 09:49:58;;;;;;;4.27;3.20;;;14.50;99.90;;;;;;6282361;22;20440;-81
2023/05/08 09:52:26;;;;;;;5.80;4.33;;;14.60;99.90;;;;;;6283521;22;20408;-81
2023/05/08 09:55:04;;;;;;;5.70;4.00;;;14.60;99.90;;;;;;6287920;22;20405;-80
2023/05/08 09:57:32;;;;;;;3.40;3.10;;;14.70;99.90;;;;;;6292627;22;20385;-78
2023/05/08 10:00:06;;;;;;;4.20;3.77;;;14.90;99.90;;;;;;6293906;22;20448;-80
2023/05/08 10:02:33;;;;;;;4.23;2.93;;;14.90;99.90;;;;;;6292301;22;20389;-80
2023/05/08 10:05:34;;;;;;;3.60;3.00;;;15.00;99.90;;;;;;6291143;22;20472;-80
2023/05/08 10:08:21;;;;;;;4.30;2.67;;;15.20;99.90;;;;;;6286689;22;20478;-80
2023/05/08 10:10:48;;;;;;;6.90;3.17;;;15.10;99.90;;;;;;6285359;22;20425;-80
2023/05/08 10:13:15;;;;;;;2.83;2.50;;;15.10;99.90;;;;;;6284328;22;20508;-81
2023/05/08 10:15:44;;;;;;;4.80;2.90;;;15.30;99.90;;;;;;6283486;22;20465;-80
2023/05/08 10:18:11;;;;;;;8.30;3.13;;;15.40;99.90;;;;;;6283258;22;20469;-81
2023/05/08 10:20:41;;;;;;;4.20;3.13;;;15.40;99.90;;;;;;6286529;22;20942;-81
2023/05/08 10:23:14;;;;;;;3.23;2.93;;;15.50;99.90;;;;;;6288699;22;20431;-81
2023/05/08 10:25:44;;;;;;;3.77;3.13;;;15.30;99.90;;;;;;6285372;22;20862;-79
2023/05/08 10:28:18;;;;;;;3.10;2.80;;;15.40;99.90;;;;;;6283853;22;20908;-80
2023/05/08 10:30:49;;;;;;;5.03;3.07;;;15.40;99.90;;;;;;6283377;22;20425;-81
2023/05/08 10:33:20;;;;;;;3.73;3.43;;;15.50;99.90;;;;;;6282739;22;20457;-79
2023/05/08 10:35:48;;;;;;;4.67;4.13;;;15.70;99.90;;;;;;6282373;22;20435;-79
2023/05/08 10:38:17;;;;;;;3.43;2.77;;;15.90;99.90;;;;;;6293394;22;20420;-80
2023/05/08 10:40:44;;;;;;;4.43;3.40;;;15.90;99.90;;;;;;6297769;22;20417;-79
2023/05/08 10:43:12;;;;;;;3.17;2.87;;;15.80;99.90;;;;;;6292618;22;20401;-81
2023/05/08 10:45:39;;;;;;;3.13;2.93;;;15.80;99.90;;;;;;6283219;22;20469;-80
2023/05/08 10:48:18;;;;;;;3.07;2.87;;;15.80;99.90;;;;;;6282779;22;20439;-80
2023/05/08 10:50:57;;;;;;;4.20;3.40;;;15.80;99.90;;;;;;6283565;22;20524;-80
2023/05/08 10:53:36;;;;;;;6.87;2.53;;;15.90;99.90;;;;;;6282181;22;20399;-80
2023/05/08 10:56:04;;;;;;;10.83;3.50;;;16.00;99.90;;;;;;6294941;22;20413;-80
2023/05/08 10:58:32;;;;;;;3.43;2.97;;;16.30;1.00;;;;;;6299742;22;20436;-79
2023/05/08 11:01:20;;;;;;;5.37;4.87;;;16.00;99.90;;;;;;6301531;22;20421;-80
2023/05/08 11:03:50;;;;;;;3.50;3.20;;;16.10;99.90;;;;;;6288934;22;20471;-81
2023/05/08 11:06:17;;;;;;;5.57;4.30;;;16.10;99.90;;;;;;6282420;22;20877;-79
2023/05/08 11:08:49;;;;;;;4.20;2.90;;;16.40;1.00;;;;;;6284760;22;20447;-80
2023/05/08 11:11:25;;;;;;;3.20;2.90;;;16.20;99.90;;;;;;6284196;22;20386;-80
2023/05/08 11:13:55;;;;;;;3.57;2.40;;;16.30;99.90;;;;;;6299675;22;20464;-80
2023/05/08 11:16:59;;;;;;;2.90;2.63;;;16.40;99.90;;;;;;6293485;22;20389;-81
2023/05/08 11:19:27;;;;;;;2.83;2.47;;;16.50;99.90;;;;;;6282865;22;20435;-81
2023/05/08 11:22:14;;;;;;;4.40;3.27;;;16.50;99.90;;;;;;6282413;22;20791;-81
2023/05/08 11:24:48;;;;;;;2.80;2.60;;;16.60;99.90;;;;;;6283062;22;20451;-80
2023/05/08 11:27:17;;;;;;;3.37;2.60;;;16.50;99.90;;;;;;6283583;22;20480;-81
2023/05/08 11:29:44;;;;;;;3.13;2.80;;;16.60;99.90;;;;;;6284249;22;20507;-80
2023/05/08 11:32:11;;;;;;;14.10;8.57;;;16.80;1.00;;;;;;6285572;22;20401;-80
2023/05/08 11:34:48;;;;;;;2.60;2.40;;;16.50;99.90;;;;;;6291059;22;20408;-80
2023/05/08 11:37:20;;;;;;;3.07;2.77;;;16.60;99.90;;;;;;6285739;22;20435;-80
2023/05/08 11:39:48;;;;;;;2.80;2.40;;;16.70;99.90;;;;;;6282941;22;20839;-80
2023/05/08 11:42:33;;;;;;;2.47;2.27;;;16.90;99.90;;;;;;6282231;22;20411;-79
2023/05/08 11:45:04;;;;;;;5.63;3.37;;;16.60;99.90;;;;;;6284955;22;20429;-80
2023/05/08 11:47:36;;;;;;;3.40;2.90;;;16.70;99.90;;;;;;6288177;22;20389;-80
2023/05/08 11:50:04;;;;;;;2.90;2.60;;;16.70;99.90;;;;;;6289697;22;20452;-82
2023/05/08 11:52:32;;;;;;;3.50;3.20;;;16.50;99.90;;;;;;6289185;22;20401;-81
2023/05/08 11:55:04;;;;;;;4.63;2.83;;;16.60;99.90;;;;;;6280018;22;20500;-80
2023/05/08 11:57:32;;;;;;;2.33;2.13;;;16.80;99.90;;;;;;6281166;22;20800;-79
2023/05/08 12:00:03;;;;;;;6.87;2.67;;;16.80;99.90;;;;;;6283221;22;20424;-80
2023/05/08 12:02:37;;;;;;;3.90;2.73;;;16.70;99.90;;;;;;6282053;22;20389;-80
2023/05/08 12:05:05;;;;;;;2.63;2.40;;;16.80;99.90;;;;;;6282083;22;20508;-79
2023/05/08 12:07:31;;;;;;;3.03;2.63;;;16.80;99.90;;;;;;6282443;22;20488;-80
2023/05/08 12:10:01;;;;;;;6.23;3.47;;;16.90;99.90;;;;;;6282429;22;20424;-80
2023/05/08 12:12:39;;;;;;;4.67;2.67;;;17.10;99.90;;;;;;6282925;22;20463;-81
2023/05/08 12:15:07;;;;;;;3.23;2.93;;;16.40;1.00;;;;;;6283438;22;20424;-80
2023/05/08 12:17:34;;;;;;;4.07;3.07;;;16.90;99.90;;;;;;6282588;22;20412;-81
2023/05/08 12:20:11;;;;;;;3.63;2.67;;;17.00;99.90;;;;;;6288720;22;20425;-80
2023/05/08 12:22:39;;;;;;;4.93;3.00;;;17.00;99.90;;;;;;6294896;22;20400;-80
2023/05/08 12:25:08;;;;;;;3.10;2.80;;;16.90;99.90;;;;;;6296116;22;20440;-80
2023/05/08 12:27:36;;;;;;;2.90;2.60;;;17.00;99.90;;;;;;6294158;22;20401;-79
2023/05/08 12:30:10;;;;;;;2.77;2.47;;;17.10;99.90;;;;;;6297346;22;20429;-80
2023/05/08 12:32:38;;;;;;;2.90;2.60;;;17.30;99.90;;;;;;6288537;22;20413;-80
2023/05/08 12:35:27;;;;;;;4.87;2.90;;;17.20;99.90;;;;;;6290967;22;20459;-80
2023/05/08 12:37:54;;;;;;;3.17;2.27;;;17.30;1.00;;;;;;6297066;22;20423;-80
2023/05/08 12:40:26;;;;;;;10.43;3.90;;;17.30;99.90;;;;;;6302575;22;20429;-80
2023/05/08 12:42:53;;;;;;;3.63;2.03;;;17.20;99.90;;;;;;6295071;22;20432;-81
2023/05/08 12:45:23;;;;;;;2.63;2.43;;;17.10;99.90;;;;;;6286497;22;21043;-80
2023/05/08 12:47:51;;;;;;;3.17;2.87;;;17.10;99.90;;;;;;6286529;22;20760;-80
2023/05/08 12:51:24;;;;;;;6.50;3.20;;;17.30;99.90;;;;;;6288709;22;20488;-87
2023/05/08 13:18:05;;;;;;;3.63;3.30;;;17.70;99.90;;;;;;6282273;22;20427;-86
2023/05/08 13:21:05;;;;;;;2.37;2.17;;;17.60;99.90;;;;;;6198581;22;20770;-87
2023/05/08 13:24:12;;;;;;;2.90;2.40;;;17.60;99.90;;;;;;6299958;22;20401;-86
2023/05/08 13:39:37;;;;;;;5.63;3.20;;;17.70;99.90;;;;;;6117172;23;20743;-86
2023/05/08 13:45:53;;;;;;;2.07;1.87;;;19.00;99.90;;;;;;6262168;22;20420;-86
2023/05/08 14:04:19;;;;;;;4.20;3.10;;;18.10;99.90;;;;;;6129755;23;20480;-86
2023/05/08 14:07:18;;;;;;;6.33;2.67;;;18.00;99.90;;;;;;6130721;23;20437;-87